sensor_id;sensor_type;location;lat;lon;timestamp;temperature;humidity
41481;DHT22;27217;51.220;5.308;2023-04-15T00:00:22;8.00;99.90
41481;DHT22;27217;51.220;5.308;2023-04-15T00:03:28;8.10;99.90
41481;DHT22;27217;51.220;5.308;2023-04-15T00:06:35;8.60;99.90
41481;DHT22;27217;51.220;5.308;2023-04-15T00:09:43;8.30;99.90
41481;DHT22;27217;51.220;5.308;2023-04-15T00:12:50;8.20;99.90
41481;DHT22;27217;51.220;5.308;2023-04-15T00:15:56;8.10;99.90
41481;DHT22;27217;51.220;5.308;2023-04-15T00:19:01;8.20;99.90
41481;DHT22;27217;51.220;5.308;2023-04-15T00:22:07;8.90;99.90
41481;DHT22;27217;51.220;5.308;2023-04-15T00:25:15;8.30;99.90
41481;DHT22;27217;51.220;5.308;2023-04-15T00:28:18;8.20;99.90
41481;DHT22;27217;51.220;5.308;2023-04-15T00:31:24;8.70;99.90
41481;DHT22;27217;51.220;5.308;2023-04-15T00:34:30;8.10;99.90
41481;DHT22;27217;51.220;5.308;2023-04-15T00:37:36;8.20;99.90
41481;DHT22;27217;51.220;5.308;2023-04-15T00:40:41;9.00;99.90
41481;DHT22;27217;51.220;5.308;2023-04-15T00:43:48;8.50;99.90
41481;DHT22;27217;51.220;5.308;2023-04-15T00:46:56;8.80;99.90
41481;DHT22;27217;51.220;5.308;2023-04-15T00:50:02;8.70;99.90
41481;DHT22;27217;51.220;5.308;2023-04-15T00:53:08;8.60;99.90
41481;DHT22;27217;51.220;5.308;2023-04-15T00:56:13;8.50;99.90
41481;DHT22;27217;51.220;5.308;2023-04-15T00:59:19;8.70;99.90
41481;DHT22;27217;51.220;5.308;2023-04-15T01:02:24;8.70;99.90
41481;DHT22;27217;51.220;5.308;2023-04-15T01:05:30;8.60;99.90
41481;DHT22;27217;51.220;5.308;2023-04-15T01:08:42;8.60;99.90
41481;DHT22;27217;51.220;5.308;2023-04-15T01:11:47;8.40;99.90
41481;DHT22;27217;51.220;5.308;2023-04-15T01:14:53;8.40;99.90
41481;DHT22;27217;51.220;5.308;2023-04-15T01:17:59;9.00;99.90
41481;DHT22;27217;51.220;5.308;2023-04-15T01:21:05;8.50;99.90
41481;DHT22;27217;51.220;5.308;2023-04-15T01:24:10;8.40;99.90
41481;DHT22;27217;51.220;5.308;2023-04-15T01:27:16;8.30;99.90
41481;DHT22;27217;51.220;5.308;2023-04-15T01:30:22;8.20;99.90
41481;DHT22;27217;51.220;5.308;2023-04-15T01:33:28;8.20;99.90
41481;DHT22;27217;51.220;5.308;2023-04-15T01:36:34;8.20;99.90
41481;DHT22;27217;51.220;5.308;2023-04-15T01:39:39;8.30;99.90
41481;DHT22;27217;51.220;5.308;2023-04-15T01:42:45;8.40;99.90
41481;DHT22;27217;51.220;5.308;2023-04-15T01:45:50;8.50;99.90
41481;DHT22;27217;51.220;5.308;2023-04-15T01:48:56;8.50;99.90
41481;DHT22;27217;51.220;5.308;2023-04-15T01:52:01;8.50;99.90
41481;DHT22;27217;51.220;5.308;2023-04-15T01:55:07;8.50;99.90
41481;DHT22;27217;51.220;5.308;2023-04-15T01:58:13;8.70;99.90
41481;DHT22;27217;51.220;5.308;2023-04-15T02:01:19;8.80;99.90
41481;DHT22;27217;51.220;5.308;2023-04-15T02:04:25;9.20;99.90
41481;DHT22;27217;51.220;5.308;2023-04-15T02:07:30;9.20;99.90
41481;DHT22;27217;51.220;5.308;2023-04-15T02:10:36;9.30;99.90
41481;DHT22;27217;51.220;5.308;2023-04-15T02:13:42;9.10;99.90
41481;DHT22;27217;51.220;5.308;2023-04-15T02:16:49;9.10;99.90
41481;DHT22;27217;51.220;5.308;2023-04-15T02:19:54;8.60;99.90
41481;DHT22;27217;51.220;5.308;2023-04-15T02:23:01;9.00;99.90
41481;DHT22;27217;51.220;5.308;2023-04-15T02:26:06;9.30;99.90
41481;DHT22;27217;51.220;5.308;2023-04-15T02:29:12;9.60;99.90
41481;DHT22;27217;51.220;5.308;2023-04-15T02:32:21;9.30;99.90
41481;DHT22;27217;51.220;5.308;2023-04-15T02:35:29;9.20;99.90
41481;DHT22;27217;51.220;5.308;2023-04-15T02:38:35;9.00;99.90
41481;DHT22;27217;51.220;5.308;2023-04-15T02:41:41;9.20;99.90
41481;DHT22;27217;51.220;5.308;2023-04-15T02:44:47;9.20;99.90
41481;DHT22;27217;51.220;5.308;2023-04-15T02:47:53;9.30;99.90
41481;DHT22;27217;51.220;5.308;2023-04-15T02:53:56;9.60;99.90
41481;DHT22;27217;51.220;5.308;2023-04-15T02:57:02;9.90;99.90
41481;DHT22;27217;51.220;5.308;2023-04-15T03:00:08;9.50;99.90
41481;DHT22;27217;51.220;5.308;2023-04-15T03:03:13;9.50;99.90
41481;DHT22;27217;51.220;5.308;2023-04-15T03:06:18;9.50;99.90
41481;DHT22;27217;51.220;5.308;2023-04-15T03:09:24;9.40;99.90
41481;DHT22;27217;51.220;5.308;2023-04-15T03:12:30;9.40;99.90
41481;DHT22;27217;51.220;5.308;2023-04-15T03:15:35;9.30;99.90
41481;DHT22;27217;51.220;5.308;2023-04-15T03:18:41;9.30;99.90
41481;DHT22;27217;51.220;5.308;2023-04-15T03:21:47;8.80;99.90
41481;DHT22;27217;51.220;5.308;2023-04-15T03:24:52;9.30;99.90
41481;DHT22;27217;51.220;5.308;2023-04-15T03:27:58;9.40;99.90
41481;DHT22;27217;51.220;5.308;2023-04-15T03:31:03;9.50;99.90
41481;DHT22;27217;51.220;5.308;2023-04-15T03:34:08;9.50;99.90
41481;DHT22;27217;51.220;5.308;2023-04-15T03:37:14;9.50;99.90
41481;DHT22;27217;51.220;5.308;2023-04-15T03:40:20;10.00;99.90
41481;DHT22;27217;51.220;5.308;2023-04-15T03:43:25;9.90;99.90
41481;DHT22;27217;51.220;5.308;2023-04-15T03:46:31;9.50;99.90
41481;DHT22;27217;51.220;5.308;2023-04-15T03:49:37;9.20;99.90
41481;DHT22;27217;51.220;5.308;2023-04-15T03:52:43;9.10;99.90
41481;DHT22;27217;51.220;5.308;2023-04-15T03:55:48;9.20;99.90
41481;DHT22;27217;51.220;5.308;2023-04-15T03:58:54;9.20;99.90
41481;DHT22;27217;51.220;5.308;2023-04-15T04:01:59;9.20;99.90
41481;DHT22;27217;51.220;5.308;2023-04-15T04:05:05;9.20;99.90
41481;DHT22;27217;51.220;5.308;2023-04-15T04:08:11;9.00;99.90
41481;DHT22;27217;51.220;5.308;2023-04-15T04:11:16;8.80;99.90
41481;DHT22;27217;51.220;5.308;2023-04-15T04:14:22;8.80;99.90
41481;DHT22;27217;51.220;5.308;2023-04-15T04:17:28;8.90;99.90
41481;DHT22;27217;51.220;5.308;2023-04-15T04:20:34;8.80;99.90
41481;DHT22;27217;51.220;5.308;2023-04-15T04:23:39;8.80;99.90
41481;DHT22;27217;51.220;5.308;2023-04-15T04:26:45;8.70;99.90
41481;DHT22;27217;51.220;5.308;2023-04-15T04:29:51;8.70;99.90
41481;DHT22;27217;51.220;5.308;2023-04-15T04:32:56;8.60;99.90
41481;DHT22;27217;51.220;5.308;2023-04-15T04:36:02;8.70;99.90
41481;DHT22;27217;51.220;5.308;2023-04-15T04:39:08;8.60;99.90
41481;DHT22;27217;51.220;5.308;2023-04-15T04:42:14;9.00;99.90
41481;DHT22;27217;51.220;5.308;2023-04-15T04:45:20;8.80;99.90
41481;DHT22;27217;51.220;5.308;2023-04-15T04:48:26;8.70;99.90
41481;DHT22;27217;51.220;5.308;2023-04-15T04:51:31;8.30;99.90
41481;DHT22;27217;51.220;5.308;2023-04-15T04:54:38;8.40;99.90
41481;DHT22;27217;51.220;5.308;2023-04-15T04:57:43;8.60;99.90
41481;DHT22;27217;51.220;5.308;2023-04-15T05:00:49;8.40;99.90
41481;DHT22;27217;51.220;5.308;2023-04-15T05:03:54;8.40;99.90
41481;DHT22;27217;51.220;5.308;2023-04-15T05:07:00;8.40;99.90
41481;DHT22;27217;51.220;5.308;2023-04-15T05:10:07;8.30;99.90
41481;DHT22;27217;51.220;5.308;2023-04-15T05:13:12;8.10;99.90
41481;DHT22;27217;51.220;5.308;2023-04-15T05:16:18;8.00;99.90
41481;DHT22;27217;51.220;5.308;2023-04-15T05:19:23;8.00;99.90
41481;DHT22;27217;51.220;5.308;2023-04-15T05:22:29;7.90;99.90
41481;DHT22;27217;51.220;5.308;2023-04-15T05:25:35;8.00;99.90
41481;DHT22;27217;51.220;5.308;2023-04-15T05:28:40;7.90;99.90
41481;DHT22;27217;51.220;5.308;2023-04-15T05:31:46;7.80;99.90
41481;DHT22;27217;51.220;5.308;2023-04-15T05:34:52;8.50;99.90
41481;DHT22;27217;51.220;5.308;2023-04-15T05:37:57;7.80;99.90
41481;DHT22;27217;51.220;5.308;2023-04-15T05:41:03;7.90;99.90
41481;DHT22;27217;51.220;5.308;2023-04-15T05:44:09;7.80;99.90
41481;DHT22;27217;51.220;5.308;2023-04-15T05:47:14;7.80;99.90
41481;DHT22;27217;51.220;5.308;2023-04-15T05:50:20;7.90;99.90
41481;DHT22;27217;51.220;5.308;2023-04-15T05:53:26;8.00;99.90
41481;DHT22;27217;51.220;5.308;2023-04-15T05:56:31;8.00;99.90
41481;DHT22;27217;51.220;5.308;2023-04-15T05:59:37;7.80;99.90
41481;DHT22;27217;51.220;5.308;2023-04-15T06:02:42;7.90;99.90
41481;DHT22;27217;51.220;5.308;2023-04-15T06:05:48;8.20;99.90
41481;DHT22;27217;51.220;5.308;2023-04-15T06:08:54;8.40;99.90
41481;DHT22;27217;51.220;5.308;2023-04-15T06:11:59;7.90;99.90
41481;DHT22;27217;51.220;5.308;2023-04-15T06:15:05;7.90;99.90
41481;DHT22;27217;51.220;5.308;2023-04-15T06:18:11;7.90;99.90
41481;DHT22;27217;51.220;5.308;2023-04-15T06:21:16;8.00;99.90
41481;DHT22;27217;51.220;5.308;2023-04-15T06:24:21;8.10;99.90
41481;DHT22;27217;51.220;5.308;2023-04-15T06:27:27;8.10;99.90
41481;DHT22;27217;51.220;5.308;2023-04-15T06:30:33;8.40;99.90
41481;DHT22;27217;51.220;5.308;2023-04-15T06:33:38;8.70;99.90
41481;DHT22;27217;51.220;5.308;2023-04-15T06:36:44;8.50;99.90
41481;DHT22;27217;51.220;5.308;2023-04-15T06:39:50;8.50;99.90
41481;DHT22;27217;51.220;5.308;2023-04-15T06:42:55;8.70;99.90
41481;DHT22;27217;51.220;5.308;2023-04-15T06:46:01;8.70;99.90
41481;DHT22;27217;51.220;5.308;2023-04-15T06:49:07;8.90;99.90
41481;DHT22;27217;51.220;5.308;2023-04-15T06:52:12;8.90;99.90
41481;DHT22;27217;51.220;5.308;2023-04-15T06:55:18;9.10;99.90
41481;DHT22;27217;51.220;5.308;2023-04-15T06:58:24;9.20;99.90
41481;DHT22;27217;51.220;5.308;2023-04-15T07:01:30;9.30;99.90
41481;DHT22;27217;51.220;5.308;2023-04-15T07:04:36;9.30;99.90
41481;DHT22;27217;51.220;5.308;2023-04-15T07:07:42;9.50;99.90
41481;DHT22;27217;51.220;5.308;2023-04-15T07:10:47;9.40;99.90
41481;DHT22;27217;51.220;5.308;2023-04-15T07:13:53;9.90;99.90
41481;DHT22;27217;51.220;5.308;2023-04-15T07:16:59;9.90;99.90
41481;DHT22;27217;51.220;5.308;2023-04-15T07:20:05;9.80;99.90
41481;DHT22;27217;51.220;5.308;2023-04-15T07:23:11;10.00;99.90
41481;DHT22;27217;51.220;5.308;2023-04-15T07:26:16;10.00;99.90
41481;DHT22;27217;51.220;5.308;2023-04-15T07:29:22;10.10;99.90
41481;DHT22;27217;51.220;5.308;2023-04-15T07:32:27;10.20;99.90
41481;DHT22;27217;51.220;5.308;2023-04-15T07:35:33;10.30;99.90
41481;DHT22;27217;51.220;5.308;2023-04-15T07:38:38;10.40;99.90
41481;DHT22;27217;51.220;5.308;2023-04-15T07:41:46;10.60;99.90
41481;DHT22;27217;51.220;5.308;2023-04-15T07:44:51;10.70;99.90
41481;DHT22;27217;51.220;5.308;2023-04-15T07:47:57;10.70;99.90
41481;DHT22;27217;51.220;5.308;2023-04-15T07:51:03;10.90;99.90
41481;DHT22;27217;51.220;5.308;2023-04-15T07:54:09;10.50;99.90
41481;DHT22;27217;51.220;5.308;2023-04-15T07:57:14;10.50;99.90
41481;DHT22;27217;51.220;5.308;2023-04-15T08:00:20;10.70;99.90
41481;DHT22;27217;51.220;5.308;2023-04-15T08:03:25;10.80;99.90
41481;DHT22;27217;51.220;5.308;2023-04-15T08:06:31;11.00;99.90
41481;DHT22;27217;51.220;5.308;2023-04-15T08:09:37;11.10;99.90
41481;DHT22;27217;51.220;5.308;2023-04-15T08:12:43;11.40;99.90
41481;DHT22;27217;51.220;5.308;2023-04-15T08:19:07;11.20;99.90
41481;DHT22;27217;51.220;5.308;2023-04-15T08:22:13;11.30;99.90
41481;DHT22;27217;51.220;5.308;2023-04-15T08:25:18;11.40;99.90
41481;DHT22;27217;51.220;5.308;2023-04-15T08:28:24;11.50;99.90
41481;DHT22;27217;51.220;5.308;2023-04-15T08:31:29;11.70;99.90
41481;DHT22;27217;51.220;5.308;2023-04-15T08:34:35;11.30;99.90
41481;DHT22;27217;51.220;5.308;2023-04-15T08:37:41;12.10;99.90
41481;DHT22;27217;51.220;5.308;2023-04-15T08:40:47;12.10;99.90
41481;DHT22;27217;51.220;5.308;2023-04-15T08:43:53;12.20;99.90
41481;DHT22;27217;51.220;5.308;2023-04-15T08:47:07;12.20;99.90
41481;DHT22;27217;51.220;5.308;2023-04-15T08:50:04;12.00;99.90
41481;DHT22;27217;51.220;5.308;2023-04-15T08:53:10;12.10;99.90
41481;DHT22;27217;51.220;5.308;2023-04-15T08:56:19;12.30;99.90
41481;DHT22;27217;51.220;5.308;2023-04-15T08:59:25;12.40;99.90
41481;DHT22;27217;51.220;5.308;2023-04-15T09:02:30;12.30;99.90
41481;DHT22;27217;51.220;5.308;2023-04-15T09:05:36;12.60;99.90
41481;DHT22;27217;51.220;5.308;2023-04-15T09:08:43;12.70;99.90
41481;DHT22;27217;51.220;5.308;2023-04-15T09:11:48;13.00;99.90
41481;DHT22;27217;51.220;5.308;2023-04-15T09:14:54;13.00;99.90
41481;DHT22;27217;51.220;5.308;2023-04-15T09:18:04;13.10;99.90
41481;DHT22;27217;51.220;5.308;2023-04-15T09:21:10;13.00;99.90
41481;DHT22;27217;51.220;5.308;2023-04-15T09:24:17;13.00;99.90
41481;DHT22;27217;51.220;5.308;2023-04-15T09:27:23;13.00;99.90
41481;DHT22;27217;51.220;5.308;2023-04-15T09:30:29;13.10;99.90
41481;DHT22;27217;51.220;5.308;2023-04-15T09:33:35;13.10;99.90
41481;DHT22;27217;51.220;5.308;2023-04-15T09:39:47;13.40;99.90
41481;DHT22;27217;51.220;5.308;2023-04-15T09:42:55;13.60;99.70
41481;DHT22;27217;51.220;5.308;2023-04-15T09:46:07;13.60;97.10
41481;DHT22;27217;51.220;5.308;2023-04-15T09:49:19;13.60;98.30
41481;DHT22;27217;51.220;5.308;2023-04-15T09:52:25;13.70;99.20
41481;DHT22;27217;51.220;5.308;2023-04-15T09:55:31;13.50;98.60
41481;DHT22;27217;51.220;5.308;2023-04-15T09:58:43;13.60;96.00
41481;DHT22;27217;51.220;5.308;2023-04-15T10:01:29;13.60;92.50
41481;DHT22;27217;51.220;5.308;2023-04-15T10:04:35;13.70;93.80
41481;DHT22;27217;51.220;5.308;2023-04-15T10:07:40;13.20;94.50
41481;DHT22;27217;51.220;5.308;2023-04-15T10:10:47;13.20;96.30
41481;DHT22;27217;51.220;5.308;2023-04-15T10:13:52;13.30;96.30
41481;DHT22;27217;51.220;5.308;2023-04-15T10:16:59;13.60;97.20
41481;DHT22;27217;51.220;5.308;2023-04-15T10:20:03;13.60;97.80
41481;DHT22;27217;51.220;5.308;2023-04-15T10:23:09;13.50;98.40
41481;DHT22;27217;51.220;5.308;2023-04-15T10:26:15;13.40;98.10
41481;DHT22;27217;51.220;5.308;2023-04-15T10:29:21;13.50;97.70
41481;DHT22;27217;51.220;5.308;2023-04-15T10:32:26;13.90;96.80
41481;DHT22;27217;51.220;5.308;2023-04-15T10:35:32;13.70;97.40
41481;DHT22;27217;51.220;5.308;2023-04-15T10:38:50;13.80;96.80
41481;DHT22;27217;51.220;5.308;2023-04-15T10:42:05;13.90;97.20
41481;DHT22;27217;51.220;5.308;2023-04-15T10:45:15;14.00;96.80
41481;DHT22;27217;51.220;5.308;2023-04-15T10:48:16;14.20;97.20
41481;DHT22;27217;51.220;5.308;2023-04-15T10:51:25;14.40;95.30
41481;DHT22;27217;51.220;5.308;2023-04-15T10:54:33;14.60;95.30
41481;DHT22;27217;51.220;5.308;2023-04-15T10:57:40;15.20;94.00
41481;DHT22;27217;51.220;5.308;2023-04-15T11:00:49;15.50;93.50
41481;DHT22;27217;51.220;5.308;2023-04-15T11:03:57;15.30;94.40
41481;DHT22;27217;51.220;5.308;2023-04-15T11:07:06;16.60;91.10
41481;DHT22;27217;51.220;5.308;2023-04-15T11:12:59;18.00;80.00
41481;DHT22;27217;51.220;5.308;2023-04-15T11:16:03;18.20;77.00
41481;DHT22;27217;51.220;5.308;2023-04-15T11:19:15;18.50;74.80
41481;DHT22;27217;51.220;5.308;2023-04-15T11:22:26;19.00;73.10
41481;DHT22;27217;51.220;5.308;2023-04-15T11:25:33;19.80;66.30
41481;DHT22;27217;51.220;5.308;2023-04-15T11:28:39;19.20;64.00
41481;DHT22;27217;51.220;5.308;2023-04-15T11:31:46;19.80;61.40
41481;DHT22;27217;51.220;5.308;2023-04-15T11:34:51;19.00;61.00
41481;DHT22;27217;51.220;5.308;2023-04-15T11:37:57;19.70;58.20
41481;DHT22;27217;51.220;5.308;2023-04-15T11:41:03;20.40;55.80
41481;DHT22;27217;51.220;5.308;2023-04-15T11:44:15;20.70;55.50
41481;DHT22;27217;51.220;5.308;2023-04-15T11:47:23;21.90;55.00
41481;DHT22;27217;51.220;5.308;2023-04-15T11:50:33;22.90;52.20
41481;DHT22;27217;51.220;5.308;2023-04-15T11:53:42;21.20;53.30
41481;DHT22;27217;51.220;5.308;2023-04-15T11:56:50;20.90;53.60
41481;DHT22;27217;51.220;5.308;2023-04-15T12:00:01;20.80;52.90
41481;DHT22;27217;51.220;5.308;2023-04-15T12:06:12;21.00;54.00
41481;DHT22;27217;51.220;5.308;2023-04-15T12:09:17;21.20;54.30
41481;DHT22;27217;51.220;5.308;2023-04-15T12:12:27;22.40;52.50
41481;DHT22;27217;51.220;5.308;2023-04-15T12:15:32;22.10;53.50
41481;DHT22;27217;51.220;5.308;2023-04-15T12:18:38;21.50;50.70
41481;DHT22;27217;51.220;5.308;2023-04-15T12:21:44;20.90;54.00
41481;DHT22;27217;51.220;5.308;2023-04-15T12:24:53;21.40;52.50
41481;DHT22;27217;51.220;5.308;2023-04-15T12:27:55;20.70;53.90
41481;DHT22;27217;51.220;5.308;2023-04-15T12:31:10;20.50;54.80
41481;DHT22;27217;51.220;5.308;2023-04-15T12:34:16;20.00;55.60
41481;DHT22;27217;51.220;5.308;2023-04-15T12:37:22;20.30;56.50
41481;DHT22;27217;51.220;5.308;2023-04-15T12:40:27;21.30;55.20
41481;DHT22;27217;51.220;5.308;2023-04-15T12:43:33;19.80;58.00
41481;DHT22;27217;51.220;5.308;2023-04-15T12:46:39;20.10;56.90
41481;DHT22;27217;51.220;5.308;2023-04-15T12:49:44;20.40;56.10
41481;DHT22;27217;51.220;5.308;2023-04-15T12:52:50;20.70;55.80
41481;DHT22;27217;51.220;5.308;2023-04-15T12:55:56;21.60;54.10
41481;DHT22;27217;51.220;5.308;2023-04-15T12:59:01;21.60;55.20
41481;DHT22;27217;51.220;5.308;2023-04-15T13:02:08;21.10;55.40
41481;DHT22;27217;51.220;5.308;2023-04-15T13:05:14;21.10;56.00
41481;DHT22;27217;51.220;5.308;2023-04-15T13:08:21;20.40;56.60
41481;DHT22;27217;51.220;5.308;2023-04-15T13:11:27;21.10;57.20
41481;DHT22;27217;51.220;5.308;2023-04-15T13:14:32;20.40;57.60
41481;DHT22;27217;51.220;5.308;2023-04-15T13:17:37;21.70;56.40
41481;DHT22;27217;51.220;5.308;2023-04-15T13:20:43;21.80;56.00
41481;DHT22;27217;51.220;5.308;2023-04-15T13:23:48;19.50;58.10
41481;DHT22;27217;51.220;5.308;2023-04-15T13:26:57;20.10;58.00
41481;DHT22;27217;51.220;5.308;2023-04-15T13:30:03;20.80;57.00
41481;DHT22;27217;51.220;5.308;2023-04-15T13:33:08;19.90;58.10
41481;DHT22;27217;51.220;5.308;2023-04-15T13:36:14;19.90;58.80
41481;DHT22;27217;51.220;5.308;2023-04-15T13:39:19;21.10;57.50
41481;DHT22;27217;51.220;5.308;2023-04-15T13:42:25;21.60;56.20
41481;DHT22;27217;51.220;5.308;2023-04-15T13:45:31;21.70;56.30
41481;DHT22;27217;51.220;5.308;2023-04-15T13:48:37;21.20;56.70
41481;DHT22;27217;51.220;5.308;2023-04-15T13:51:42;20.50;58.80
41481;DHT22;27217;51.220;5.308;2023-04-15T13:54:48;19.30;62.20
41481;DHT22;27217;51.220;5.308;2023-04-15T13:57:53;18.20;65.50
41481;DHT22;27217;51.220;5.308;2023-04-15T14:00:59;18.00;67.30
41481;DHT22;27217;51.220;5.308;2023-04-15T14:04:04;17.50;68.30
41481;DHT22;27217;51.220;5.308;2023-04-15T14:07:10;18.00;68.40
41481;DHT22;27217;51.220;5.308;2023-04-15T14:10:15;19.10;66.10
41481;DHT22;27217;51.220;5.308;2023-04-15T14:13:21;19.40;63.50
41481;DHT22;27217;51.220;5.308;2023-04-15T14:16:27;18.30;65.70
41481;DHT22;27217;51.220;5.308;2023-04-15T14:19:33;17.40;69.20
41481;DHT22;27217;51.220;5.308;2023-04-15T14:22:38;18.40;67.40
41481;DHT22;27217;51.220;5.308;2023-04-15T14:25:44;20.30;60.70
41481;DHT22;27217;51.220;5.308;2023-04-15T14:28:50;18.50;63.30
41481;DHT22;27217;51.220;5.308;2023-04-15T14:31:55;18.00;65.80
41481;DHT22;27217;51.220;5.308;2023-04-15T14:35:01;19.70;63.10
41481;DHT22;27217;51.220;5.308;2023-04-15T14:38:06;19.90;61.40
41481;DHT22;27217;51.220;5.308;2023-04-15T14:41:15;19.80;60.30
41481;DHT22;27217;51.220;5.308;2023-04-15T14:44:20;18.70;62.60
41481;DHT22;27217;51.220;5.308;2023-04-15T14:47:26;19.20;63.50
41481;DHT22;27217;51.220;5.308;2023-04-15T14:50:32;19.00;61.90
41481;DHT22;27217;51.220;5.308;2023-04-15T14:53:37;19.70;61.70
41481;DHT22;27217;51.220;5.308;2023-04-15T14:56:43;18.70;63.60
41481;DHT22;27217;51.220;5.308;2023-04-15T14:59:49;19.20;63.30
41481;DHT22;27217;51.220;5.308;2023-04-15T15:02:55;18.00;65.10
41481;DHT22;27217;51.220;5.308;2023-04-15T15:06:01;18.40;65.20
41481;DHT22;27217;51.220;5.308;2023-04-15T15:09:07;18.00;66.80
41481;DHT22;27217;51.220;5.308;2023-04-15T15:12:13;17.80;67.20
41481;DHT22;27217;51.220;5.308;2023-04-15T15:15:19;19.70;63.50
41481;DHT22;27217;51.220;5.308;2023-04-15T15:18:25;21.30;59.90
41481;DHT22;27217;51.220;5.308;2023-04-15T15:21:30;22.00;58.30
41481;DHT22;27217;51.220;5.308;2023-04-15T15:24:36;21.30;58.60
41481;DHT22;27217;51.220;5.308;2023-04-15T15:27:43;20.30;60.50
41481;DHT22;27217;51.220;5.308;2023-04-15T15:30:48;20.80;59.30
41481;DHT22;27217;51.220;5.308;2023-04-15T15:33:54;20.80;58.50
41481;DHT22;27217;51.220;5.308;2023-04-15T15:37:00;20.40;59.90
41481;DHT22;27217;51.220;5.308;2023-04-15T15:40:06;18.40;64.80
41481;DHT22;27217;51.220;5.308;2023-04-15T15:43:12;17.90;67.10
41481;DHT22;27217;51.220;5.308;2023-04-15T15:46:18;19.60;64.80
41481;DHT22;27217;51.220;5.308;2023-04-15T15:49:23;21.10;60.00
41481;DHT22;27217;51.220;5.308;2023-04-15T15:52:29;21.40;60.10
41481;DHT22;27217;51.220;5.308;2023-04-15T15:55:34;22.80;57.80
41481;DHT22;27217;51.220;5.308;2023-04-15T15:58:41;22.00;57.30
41481;DHT22;27217;51.220;5.308;2023-04-15T16:01:46;18.70;63.10
41481;DHT22;27217;51.220;5.308;2023-04-15T16:04:52;17.60;68.00
41481;DHT22;27217;51.220;5.308;2023-04-15T16:07:58;17.10;71.00
41481;DHT22;27217;51.220;5.308;2023-04-15T16:11:05;16.50;74.20
41481;DHT22;27217;51.220;5.308;2023-04-15T16:14:10;16.20;76.90
41481;DHT22;27217;51.220;5.308;2023-04-15T16:17:16;15.60;83.00
41481;DHT22;27217;51.220;5.308;2023-04-15T16:20:22;15.20;89.90
41481;DHT22;27217;51.220;5.308;2023-04-15T16:23:28;15.70;91.20
41481;DHT22;27217;51.220;5.308;2023-04-15T16:26:33;16.90;83.40
41481;DHT22;27217;51.220;5.308;2023-04-15T16:29:39;15.90;87.70
41481;DHT22;27217;51.220;5.308;2023-04-15T16:32:45;16.10;88.50
41481;DHT22;27217;51.220;5.308;2023-04-15T16:35:51;16.00;90.20
41481;DHT22;27217;51.220;5.308;2023-04-15T16:38:57;17.30;83.90
41481;DHT22;27217;51.220;5.308;2023-04-15T16:42:04;17.30;83.20
41481;DHT22;27217;51.220;5.308;2023-04-15T16:45:10;16.90;85.20
41481;DHT22;27217;51.220;5.308;2023-04-15T16:48:16;16.90;86.00
41481;DHT22;27217;51.220;5.308;2023-04-15T16:51:21;15.50;92.80
41481;DHT22;27217;51.220;5.308;2023-04-15T16:54:27;15.30;94.80
41481;DHT22;27217;51.220;5.308;2023-04-15T16:57:32;16.30;91.20
41481;DHT22;27217;51.220;5.308;2023-04-15T17:00:38;17.80;84.90
41481;DHT22;27217;51.220;5.308;2023-04-15T17:03:43;19.30;77.70
41481;DHT22;27217;51.220;5.308;2023-04-15T17:06:49;20.00;72.60
41481;DHT22;27217;51.220;5.308;2023-04-15T17:09:55;19.70;73.50
41481;DHT22;27217;51.220;5.308;2023-04-15T17:13:01;19.20;73.60
41481;DHT22;27217;51.220;5.308;2023-04-15T17:16:06;19.10;72.00
41481;DHT22;27217;51.220;5.308;2023-04-15T17:19:12;19.10;71.20
41481;DHT22;27217;51.220;5.308;2023-04-15T17:22:18;18.50;73.10
41481;DHT22;27217;51.220;5.308;2023-04-15T17:25:25;17.70;75.40
41481;DHT22;27217;51.220;5.308;2023-04-15T17:28:30;15.80;83.60
41481;DHT22;27217;51.220;5.308;2023-04-15T17:31:36;14.80;92.20
41481;DHT22;27217;51.220;5.308;2023-04-15T17:34:41;14.20;95.80
41481;DHT22;27217;51.220;5.308;2023-04-15T17:37:47;14.30;96.30
41481;DHT22;27217;51.220;5.308;2023-04-15T17:40:53;14.90;94.70
41481;DHT22;27217;51.220;5.308;2023-04-15T17:43:59;15.00;95.10
41481;DHT22;27217;51.220;5.308;2023-04-15T17:47:05;15.40;93.60
41481;DHT22;27217;51.220;5.308;2023-04-15T17:50:10;15.90;91.80
41481;DHT22;27217;51.220;5.308;2023-04-15T17:53:16;15.60;91.80
41481;DHT22;27217;51.220;5.308;2023-04-15T17:56:22;15.40;93.30
41481;DHT22;27217;51.220;5.308;2023-04-15T17:59:28;15.00;95.00
41481;DHT22;27217;51.220;5.308;2023-04-15T18:02:33;14.70;97.00
41481;DHT22;27217;51.220;5.308;2023-04-15T18:05:39;13.60;99.90
41481;DHT22;27217;51.220;5.308;2023-04-15T18:08:45;13.10;99.90
41481;DHT22;27217;51.220;5.308;2023-04-15T18:11:51;12.40;99.90
41481;DHT22;27217;51.220;5.308;2023-04-15T18:14:57;12.10;99.90
41481;DHT22;27217;51.220;5.308;2023-04-15T18:18:03;11.40;99.90
41481;DHT22;27217;51.220;5.308;2023-04-15T18:21:09;11.80;99.90
41481;DHT22;27217;51.220;5.308;2023-04-15T18:24:15;11.90;99.90
41481;DHT22;27217;51.220;5.308;2023-04-15T18:27:21;11.60;99.90
41481;DHT22;27217;51.220;5.308;2023-04-15T18:30:26;11.60;99.90
41481;DHT22;27217;51.220;5.308;2023-04-15T18:33:32;11.50;99.90
41481;DHT22;27217;51.220;5.308;2023-04-15T18:36:38;11.30;99.90
41481;DHT22;27217;51.220;5.308;2023-04-15T18:39:45;11.30;99.90
41481;DHT22;27217;51.220;5.308;2023-04-15T18:42:50;11.30;99.90
41481;DHT22;27217;51.220;5.308;2023-04-15T18:45:57;11.30;99.90
41481;DHT22;27217;51.220;5.308;2023-04-15T18:49:03;11.40;99.90
41481;DHT22;27217;51.220;5.308;2023-04-15T18:52:08;11.50;99.90
41481;DHT22;27217;51.220;5.308;2023-04-15T18:55:14;11.20;99.90
41481;DHT22;27217;51.220;5.308;2023-04-15T18:58:20;11.00;99.90
41481;DHT22;27217;51.220;5.308;2023-04-15T19:01:27;11.00;99.90
41481;DHT22;27217;51.220;5.308;2023-04-15T19:04:32;11.10;99.90
41481;DHT22;27217;51.220;5.308;2023-04-15T19:07:38;11.00;99.90
41481;DHT22;27217;51.220;5.308;2023-04-15T19:10:43;10.80;99.90
41481;DHT22;27217;51.220;5.308;2023-04-15T19:13:49;11.10;99.90
41481;DHT22;27217;51.220;5.308;2023-04-15T19:16:54;10.80;99.90
41481;DHT22;27217;51.220;5.308;2023-04-15T19:20:00;10.80;99.90
41481;DHT22;27217;51.220;5.308;2023-04-15T19:23:06;10.70;99.90
41481;DHT22;27217;51.220;5.308;2023-04-15T19:26:14;10.60;99.90
41481;DHT22;27217;51.220;5.308;2023-04-15T19:29:20;10.70;99.90
41481;DHT22;27217;51.220;5.308;2023-04-15T19:32:26;10.70;99.90
41481;DHT22;27217;51.220;5.308;2023-04-15T19:35:32;10.60;99.90
41481;DHT22;27217;51.220;5.308;2023-04-15T19:38:38;10.40;99.90
41481;DHT22;27217;51.220;5.308;2023-04-15T19:41:44;10.30;99.90
41481;DHT22;27217;51.220;5.308;2023-04-15T19:44:50;10.20;99.90
41481;DHT22;27217;51.220;5.308;2023-04-15T19:47:55;10.20;99.90
41481;DHT22;27217;51.220;5.308;2023-04-15T19:51:01;10.10;99.90
41481;DHT22;27217;51.220;5.308;2023-04-15T19:54:07;10.00;99.90
41481;DHT22;27217;51.220;5.308;2023-04-15T19:57:13;10.10;99.90